Time;durP1;ratioP1;P1;durP2;ratioP2;P2;SDS_P1;SDS_P2;PMS_P1;PMS_P2;Temp;Humidity;BMP_temperature;BMP_pressure;BME280_temperature;BME280_humidity;BME280_pressure;Samples;Min_cycle;Max_cycle;Signal;HPM_P1;HPM_P2
2024/01/12 00:01:29;;;;;;;0.10;0.10;;;;;;;21.97;33.42;102218.59;7395754;19;20010;-87
2024/01/12 00:03:56;;;;;;;0.73;0.43;;;;;;;21.07;34.54;102212.94;7392771;19;20018;-87
2024/01/12 00:06:23;;;;;;;0.50;0.40;;;;;;;20.68;35.00;102220.00;7394340;19;20039;-87
2024/01/12 00:08:49;;;;;;;0.13;0.13;;;;;;;20.62;35.29;102221.19;7393769;19;20025;-87
2024/01/12 00:11:16;;;;;;;0.10;0.10;;;;;;;20.37;35.39;102229.00;7395985;19;20363;-86
2024/01/12 00:13:43;;;;;;;0.75;0.52;;;;;;;20.23;35.68;102228.94;7392051;19;20019;-87
2024/01/12 00:16:09;;;;;;;0.43;0.13;;;;;;;20.40;35.64;102215.88;7391587;19;20110;-87
2024/01/12 00:18:35;;;;;;;0.30;0.10;;;;;;;19.17;37.40;102222.25;7393007;19;20085;-87
2024/01/12 00:21:01;;;;;;;1.13;0.43;;;;;;;22.49;33.56;102220.19;7395513;19;20046;-87
2024/01/12 00:23:27;;;;;;;0.30;0.30;;;;;;;24.10;31.95;102210.66;7395095;19;20014;-87
2024/01/12 00:28:54;;;;;;;0.55;0.40;;;;;;;25.78;30.32;102204.38;7393243;19;20007;-64
2024/01/12 00:31:20;;;;;;;0.10;0.10;;;;;;;25.31;30.74;102199.84;7393619;19;20014;-65
2024/01/12 00:33:47;;;;;;;0.55;0.47;;;;;;;24.99;30.59;102193.69;7392672;19;20355;-64
2024/01/12 00:36:13;;;;;;;0.85;0.63;;;;;;;24.89;30.88;102200.94;7393014;19;20018;-64
2024/01/12 00:38:40;;;;;;;0.50;0.47;;;;;;;23.42;32.32;102212.16;7390551;19;20534;-64
2024/01/12 00:41:06;;;;;;;0.45;0.45;;;;;;;23.66;31.75;102204.78;7391070;19;20025;-64
2024/01/12 00:43:33;;;;;;;0.30;0.30;;;;;;;20.98;34.61;102213.06;7393442;19;20081;-64
2024/01/12 00:46:02;;;;;;;0.32;0.17;;;;;;;23.06;33.16;102208.81;7393012;19;20008;-64
2024/01/12 00:48:28;;;;;;;0.30;0.25;;;;;;;24.92;30.88;102202.75;7391493;19;20018;-65
2024/01/12 00:50:54;;;;;;;0.17;0.15;;;;;;;25.47;30.38;102199.81;7395401;19;20014;-56
2024/01/12 00:53:20;;;;;;;0.63;0.52;;;;;;;25.67;30.02;102200.78;7392091;19;20014;-56
2024/01/12 00:55:46;;;;;;;0.10;0.10;;;;;;;25.80;30.13;102209.56;7390541;19;20039;-56
2024/01/12 00:58:13;;;;;;;0.60;0.52;;;;;;;26.20;29.22;102208.88;7395178;19;20019;-57
2024/01/12 01:00:39;;;;;;;0.30;0.30;;;;;;;24.35;30.91;102208.91;7392354;19;20015;-57
2024/01/12 01:03:06;;;;;;;8.65;1.15;;;;;;;22.49;32.99;102216.56;7390836;19;20351;-57
2024/01/12 01:05:33;;;;;;;0.63;0.10;;;;;;;26.02;29.77;102186.59;7392838;19;20013;-57
2024/01/12 01:07:59;;;;;;;1.98;0.22;;;;;;;23.20;32.20;102201.41;7396536;19;20086;-57
2024/01/12 01:10:25;;;;;;;0.10;0.10;;;;;;;22.80;32.93;102195.97;7393008;19;20381;-56
2024/01/12 01:12:52;;;;;;;0.20;0.20;;;;;;;22.06;33.60;102190.06;7391265;19;20419;-56
2024/01/12 01:15:19;;;;;;;0.10;0.10;;;;;;;22.07;33.57;102191.59;7392244;19;20014;-56
2024/01/12 01:17:46;;;;;;;0.45;0.45;;;;;;;23.81;31.98;102190.38;7392288;19;20018;-56
2024/01/12 01:20:12;;;;;;;0.38;0.17;;;;;;;23.67;31.97;102189.25;7392617;19;20010;-56
2024/01/12 01:22:38;;;;;;;0.52;0.35;;;;;;;22.86;32.97;102188.25;7391750;19;20023;-56
2024/01/12 01:25:06;;;;;;;0.35;0.35;;;;;;;22.54;33.11;102193.13;7392046;19;20022;-56
2024/01/12 01:27:32;;;;;;;3.10;0.75;;;;;;;23.42;32.20;102178.81;7390209;19;20006;-56
2024/01/12 01:30:00;;;;;;;0.10;0.10;;;;;;;22.90;32.57;102177.41;7393303;19;20525;-56
2024/01/12 01:32:26;;;;;;;0.52;0.50;;;;;;;22.87;32.52;102176.38;7389990;19;20040;-57
2024/01/12 01:34:52;;;;;;;1.05;0.40;;;;;;;22.92;33.02;102172.78;7389494;19;20014;-56
2024/01/12 01:37:18;;;;;;;0.50;0.50;;;;;;;22.81;33.05;102175.56;7391294;19;20017;-56
2024/01/12 01:39:44;;;;;;;0.10;0.10;;;;;;;23.10;32.49;102169.56;7391676;19;20454;-56
2024/01/12 01:42:10;;;;;;;0.73;0.50;;;;;;;22.77;33.16;102171.38;7393488;19;20372;-56
2024/01/12 01:44:36;;;;;;;0.82;0.65;;;;;;;22.83;33.15;102160.81;7392037;19;20035;-56
2024/01/12 01:47:03;;;;;;;0.20;0.15;;;;;;;22.79;33.12;102165.97;7391639;19;20037;-56
2024/01/12 01:49:29;;;;;;;0.40;0.40;;;;;;;23.68;32.35;102168.06;7391674;19;20034;-56
2024/01/12 01:51:56;;;;;;;0.13;0.10;;;;;;;23.55;32.47;102164.91;7396153;19;20358;-56
2024/01/12 01:54:22;;;;;;;7.15;0.57;;;;;;;23.39;32.64;102165.59;7399831;19;20010;-56
2024/01/12 01:56:49;;;;;;;0.10;0.10;;;;;;;23.39;32.36;102165.59;7397692;19;20003;-56
2024/01/12 01:59:15;;;;;;;0.30;0.30;;;;;;;23.35;32.77;102165.06;7393935;19;20014;-56
2024/01/12 02:01:42;;;;;;;0.17;0.17;;;;;;;24.28;31.56;102165.94;7397155;19;20025;-56
2024/01/12 02:04:10;;;;;;;0.82;0.32;;;;;;;24.33;31.67;102163.09;7397873;19;20135;-56
2024/01/12 02:06:37;;;;;;;0.17;0.17;;;;;;;24.16;31.37;102173.69;7395830;19;20491;-56
2024/01/12 02:09:04;;;;;;;0.52;0.40;;;;;;;23.80;32.17;102169.66;7397873;19;20021;-56
2024/01/12 02:11:31;;;;;;;1.42;0.47;;;;;;;23.60;31.82;102166.22;7398338;19;20018;-56
2024/01/12 02:13:57;;;;;;;1.00;0.77;;;;;;;23.20;32.07;102161.59;7397163;19;20018;-56
2024/01/12 02:16:23;;;;;;;0.20;0.20;;;;;;;23.02;32.25;102157.09;7395553;19;20014;-56
2024/01/12 02:18:50;;;;;;;0.10;0.10;;;;;;;23.15;32.43;102154.59;7393824;19;20014;-56
2024/01/12 02:21:16;;;;;;;0.10;0.10;;;;;;;23.21;32.58;102146.88;7400532;19;20083;-56
2024/01/12 02:23:42;;;;;;;0.20;0.20;;;;;;;23.18;32.31;102149.97;7396400;19;20022;-57
2024/01/12 02:26:08;;;;;;;0.75;0.75;;;;;;;23.53;32.03;102150.41;7396284;19;20086;-56
2024/01/12 02:28:35;;;;;;;0.20;0.20;;;;;;;22.61;33.14;102147.22;7395790;19;20362;-56
2024/01/12 02:31:01;;;;;;;3.03;0.20;;;;;;;22.32;33.35;102151.09;7397460;19;20014;-56
2024/01/12 02:33:28;;;;;;;0.28;0.28;;;;;;;23.09;32.70;102138.78;7399615;19;20011;-56
2024/01/12 02:35:54;;;;;;;0.95;0.47;;;;;;;25.13;30.97;102141.28;7397802;19;20466;-56
2024/01/12 02:38:20;;;;;;;0.20;0.20;;;;;;;26.33;29.54;102143.31;7394287;19;20042;-56
2024/01/12 02:40:46;;;;;;;1.27;0.25;;;;;;;23.66;31.96;102142.19;7395407;19;20450;-56
2024/01/12 02:43:12;;;;;;;0.28;0.10;;;;;;;23.68;31.68;102139.63;7397619;19;20090;-56
2024/01/12 02:45:38;;;;;;;0.10;0.00;;;;;;;23.50;31.97;102134.38;7397969;19;20014;-56
2024/01/12 02:48:05;;;;;;;0.85;0.30;;;;;;;23.47;32.36;102135.41;7396291;19;20008;-56
2024/01/12 02:50:31;;;;;;;0.10;0.10;;;;;;;23.73;31.68;102127.50;7399536;19;20007;-56
2024/01/12 02:52:57;;;;;;;0.85;0.47;;;;;;;24.73;31.25;102124.75;7397059;19;20088;-56
2024/01/12 02:55:23;;;;;;;0.35;0.10;;;;;;;23.17;32.24;102134.19;7395934;19;20471;-56
2024/01/12 02:57:49;;;;;;;0.20;0.20;;;;;;;23.16;32.18;102138.31;7396357;19;20026;-56
2024/01/12 03:00:15;;;;;;;0.20;0.20;;;;;;;21.81;33.65;102145.38;7396720;19;20475;-56
2024/01/12 03:02:42;;;;;;;0.47;0.20;;;;;;;24.28;31.51;102135.38;7395730;19;20013;-56
2024/01/12 03:05:08;;;;;;;0.77;0.68;;;;;;;25.83;29.62;102129.34;7393912;19;20014;-56
2024/01/12 03:07:34;;;;;;;0.10;0.10;;;;;;;28.78;27.14;102121.75;7393855;19;20078;-56
2024/01/12 03:10:01;;;;;;;0.10;0.10;;;;;;;28.30;27.52;102126.47;7396149;19;20011;-56
2024/01/12 03:12:27;;;;;;;0.10;0.10;;;;;;;28.37;27.21;102128.69;7396410;19;20017;-56
2024/01/12 03:14:53;;;;;;;0.10;0.10;;;;;;;28.28;27.44;102123.38;7394741;19;20030;-56
2024/01/12 03:17:19;;;;;;;0.40;0.40;;;;;;;28.42;27.58;102127.03;7394021;19;20038;-56
2024/01/12 03:19:45;;;;;;;0.47;0.40;;;;;;;28.35;27.48;102131.31;7396549;19;20066;-56
2024/01/12 03:22:11;;;;;;;0.52;0.52;;;;;;;28.38;26.75;102130.25;7398757;19;20010;-56
2024/01/12 03:24:37;;;;;;;0.10;0.10;;;;;;;29.26;26.32;102124.22;7394323;19;20022;-56
2024/01/12 03:27:04;;;;;;;0.20;0.20;;;;;;;28.74;26.98;102124.94;7393874;19;20438;-56
2024/01/12 03:29:30;;;;;;;0.30;0.22;;;;;;;29.36;26.02;102119.59;7394693;19;20335;-57
2024/01/12 03:31:56;;;;;;;14.85;1.05;;;;;;;29.42;25.98;102117.38;7395251;19;20011;-56
2024/01/12 03:34:22;;;;;;;6.97;1.05;;;;;;;28.63;26.35;102121.50;7397227;19;20037;-56
2024/01/12 03:36:48;;;;;;;0.10;0.10;;;;;;;28.43;26.91;102106.44;7395377;19;20034;-56
2024/01/12 03:39:15;;;;;;;0.10;0.10;;;;;;;28.30;26.63;102108.50;7393349;19;20351;-56
2024/01/12 03:41:41;;;;;;;0.10;0.10;;;;;;;28.66;26.77;102117.53;7393389;19;20006;-57
2024/01/12 03:44:08;;;;;;;0.15;0.15;;;;;;;28.57;26.53;102097.88;7394825;19;20038;-56
2024/01/12 03:46:35;;;;;;;0.10;0.10;;;;;;;28.34;26.51;102104.00;7392019;19;20011;-56
2024/01/12 03:49:02;;;;;;;2.17;0.20;;;;;;;28.42;26.68;102119.22;7394330;19;20349;-56
2024/01/12 03:51:28;;;;;;;0.17;0.17;;;;;;;28.76;26.38;102113.69;7398644;19;20356;-56
2024/01/12 03:53:54;;;;;;;0.20;0.10;;;;;;;28.34;26.77;102114.66;7393939;19;20081;-56
2024/01/12 03:56:20;;;;;;;0.43;0.30;;;;;;;28.01;26.50;102121.72;7393706;19;20347;-56
2024/01/12 03:58:46;;;;;;;0.10;0.10;;;;;;;26.97;27.72;102113.13;7394195;19;20026;-56
2024/01/12 04:01:12;;;;;;;0.17;0.17;;;;;;;27.18;27.61;102108.44;7395526;19;20034;-56
2024/01/12 04:03:41;;;;;;;1.45;0.82;;;;;;;26.60;28.12;102112.94;7396084;19;20025;-56
2024/01/12 04:06:10;;;;;;;0.22;0.22;;;;;;;26.18;28.23;102108.63;7393660;19;20006;-56
2024/01/12 04:08:36;;;;;;;0.30;0.30;;;;;;;27.45;27.12;102115.19;7394391;19;20018;-56
2024/01/12 04:11:02;;;;;;;0.68;0.20;;;;;;;26.59;28.12;102109.31;7394608;19;20018;-56
2024/01/12 04:13:29;;;;;;;0.38;0.20;;;;;;;26.60;28.36;102099.44;7394334;19;20037;-56
2024/01/12 04:15:55;;;;;;;0.40;0.10;;;;;;;27.05;27.72;102100.53;7395602;19;20010;-56
2024/01/12 04:18:21;;;;;;;3.83;0.32;;;;;;;27.17;27.75;102106.13;7392253;19;20019;-56
2024/01/12 04:20:47;;;;;;;0.65;0.10;;;;;;;27.47;27.55;102106.81;7397143;19;20474;-57
2024/01/12 04:23:13;;;;;;;0.98;0.22;;;;;;;27.52;27.50;102094.53;7392779;19;20122;-56
2024/01/12 04:25:39;;;;;;;4.05;0.55;;;;;;;27.43;27.63;102094.91;7394147;19;20014;-56
2024/01/12 04:28:06;;;;;;;0.10;0.10;;;;;;;26.73;27.81;102091.00;7392811;19;20022;-57
2024/01/12 04:30:32;;;;;;;1.73;0.40;;;;;;;26.03;28.47;102102.50;7394198;19;20050;-56
2024/01/12 04:32:58;;;;;;;1.13;0.45;;;;;;;25.11;29.56;102103.97;7393958;19;20424;-56
2024/01/12 04:35:24;;;;;;;0.52;0.47;;;;;;;24.27;30.21;102098.88;7396545;19;20028;-56
2024/01/12 04:37:50;;;;;;;0.30;0.20;;;;;;;23.88;30.56;102096.75;7391632;19;20014;-56
2024/01/12 04:40:17;;;;;;;8.48;1.65;;;;;;;23.73;30.71;102101.09;7394500;19;20019;-56
2024/01/12 04:42:43;;;;;;;2.08;0.57;;;;;;;23.38;30.75;102092.97;7391952;19;20015;-56
2024/01/12 04:45:09;;;;;;;0.73;0.70;;;;;;;23.45;31.14;102086.78;7391569;19;20347;-56
2024/01/12 04:47:35;;;;;;;1.17;0.63;;;;;;;23.94;30.61;102088.97;7397622;19;20006;-56
2024/01/12 04:50:01;;;;;;;0.75;0.70;;;;;;;24.30;30.02;102092.16;7392838;19;20034;-56
2024/01/12 04:52:27;;;;;;;0.57;0.57;;;;;;;24.44;30.04;102085.41;7392243;19;20015;-56
2024/01/12 04:54:53;;;;;;;0.28;0.28;;;;;;;24.30;29.90;102092.16;7391756;19;20017;-57
2024/01/12 04:57:19;;;;;;;0.45;0.35;;;;;;;24.15;30.17;102097.31;7392807;19;20011;-57
2024/01/12 04:59:46;;;;;;;1.75;0.68;;;;;;;24.14;30.12;102092.91;7397260;19;20015;-56
2024/01/12 05:02:12;;;;;;;0.10;0.10;;;;;;;23.93;30.32;102093.09;7393269;19;20018;-56
2024/01/12 05:04:38;;;;;;;0.32;0.30;;;;;;;23.57;30.64;102098.97;7393604;19;20021;-56
2024/01/12 05:07:04;;;;;;;0.30;0.20;;;;;;;23.78;30.90;102101.09;7391797;19;20030;-56
2024/01/12 05:09:30;;;;;;;1.83;0.28;;;;;;;22.92;31.67;102100.97;7390250;19;20383;-56
2024/01/12 05:11:59;;;;;;;1.65;0.50;;;;;;;22.80;31.86;102093.66;7391518;19;20066;-56
2024/01/12 05:14:26;;;;;;;0.10;0.05;;;;;;;22.97;31.33;102103.06;7392692;19;20340;-56
2024/01/12 05:16:52;;;;;;;10.85;0.47;;;;;;;24.04;30.47;102098.03;7392627;19;20014;-56
2024/01/12 05:19:18;;;;;;;0.20;0.20;;;;;;;23.55;31.12;102102.31;7388769;19;20077;-56
2024/01/12 05:21:44;;;;;;;0.20;0.17;;;;;;;21.92;32.27;102100.13;7395965;19;20003;-57
2024/01/12 05:24:10;;;;;;;1.52;0.57;;;;;;;25.16;29.93;102088.13;7390554;19;20414;-57
2024/01/12 05:26:37;;;;;;;0.68;0.35;;;;;;;25.71;29.54;102089.97;7391763;19;20447;-57
2024/01/12 05:29:03;;;;;;;0.68;0.68;;;;;;;21.67;33.43;102095.97;7398258;19;20074;-57
2024/01/12 05:31:29;;;;;;;0.47;0.40;;;;;;;20.97;34.15;102100.19;7399223;19;20421;-57
2024/01/12 05:33:55;;;;;;;3.40;0.30;;;;;;;21.19;33.37;102094.88;7400560;19;20014;-57
2024/01/12 05:36:22;;;;;;;1.45;0.90;;;;;;;21.22;33.71;102098.78;7397354;19;20014;-57
2024/01/12 05:38:48;;;;;;;0.20;0.20;;;;;;;21.81;33.15;102088.63;7395311;19;20018;-56
2024/01/12 05:41:14;;;;;;;1.65;0.30;;;;;;;21.37;33.77;102088.13;7398896;19;20049;-56
2024/01/12 05:43:40;;;;;;;0.82;0.20;;;;;;;22.69;32.45;102076.53;7400404;19;20018;-56
2024/01/12 05:46:07;;;;;;;0.40;0.35;;;;;;;22.77;32.24;102077.63;7399931;19;20015;-56
2024/01/12 05:48:34;;;;;;;2.88;0.95;;;;;;;23.87;31.75;102069.56;7399460;19;20096;-56
2024/01/12 05:51:00;;;;;;;0.20;0.20;;;;;;;24.66;30.29;102065.44;7400482;19;20471;-56
2024/01/12 05:53:26;;;;;;;0.20;0.20;;;;;;;24.79;30.23;102068.53;7398580;19;20014;-56
2024/01/12 05:55:52;;;;;;;0.20;0.10;;;;;;;23.12;31.60;102076.03;7400234;19;20467;-56
2024/01/12 05:58:19;;;;;;;1.30;0.52;;;;;;;23.53;31.85;102070.78;7397261;19;20014;-56
2024/01/12 06:00:47;;;;;;;0.55;0.45;;;;;;;23.26;32.09;102062.88;7396969;19;20011;-56
2024/01/12 06:03:13;;;;;;;7.65;0.85;;;;;;;22.76;32.57;102071.16;7397803;19;20010;-56
2024/01/12 06:05:41;;;;;;;0.25;0.25;;;;;;;22.75;32.48;102074.50;7398815;19;20010;-56
2024/01/12 06:08:07;;;;;;;0.22;0.22;;;;;;;24.30;30.67;102069.38;7396685;19;20010;-56
2024/01/12 06:10:33;;;;;;;0.13;0.13;;;;;;;23.08;32.10;102066.19;7397546;19;20015;-56
2024/01/12 06:12:59;;;;;;;0.45;0.45;;;;;;;25.02;30.58;102066.38;7396247;19;20019;-56
2024/01/12 06:15:25;;;;;;;0.10;0.10;;;;;;;24.33;30.99;102069.09;7397066;19;20394;-56
2024/01/12 06:17:51;;;;;;;1.05;0.35;;;;;;;23.91;31.17;102061.53;7399517;19;20017;-57
2024/01/12 06:20:17;;;;;;;0.55;0.38;;;;;;;22.31;32.93;102070.03;7400298;19;20018;-57
2024/01/12 06:22:44;;;;;;;0.40;0.30;;;;;;;21.07;34.05;102071.25;7396703;19;20015;-57
2024/01/12 06:25:10;;;;;;;0.28;0.28;;;;;;;20.35;35.12;102072.25;7397176;19;20014;-56
2024/01/12 06:27:36;;;;;;;0.20;0.17;;;;;;;21.38;33.80;102061.34;7396893;19;20015;-57
2024/01/12 06:30:03;;;;;;;0.10;0.10;;;;;;;23.80;31.82;102055.81;7399209;19;20498;-56
2024/01/12 06:32:29;;;;;;;0.35;0.35;;;;;;;24.18;30.90;102062.88;7398457;19;20345;-56
2024/01/12 06:34:55;;;;;;;0.50;0.40;;;;;;;23.73;31.65;102064.09;7396317;19;20017;-56
2024/01/12 06:37:21;;;;;;;0.22;0.22;;;;;;;25.14;30.46;102057.28;7395567;19;20009;-56
2024/01/12 06:39:49;;;;;;;0.20;0.20;;;;;;;25.85;29.80;102058.22;7393361;19;20015;-56
2024/01/12 06:42:15;;;;;;;1.40;0.75;;;;;;;26.42;29.07;102060.13;7398449;19;20455;-57
2024/01/12 06:44:42;;;;;;;0.35;0.35;;;;;;;26.54;28.79;102058.69;7396260;19;20069;-56
2024/01/12 06:47:08;;;;;;;0.55;0.55;;;;;;;25.79;29.72;102059.56;7395775;19;20011;-57
2024/01/12 06:49:34;;;;;;;0.65;0.43;;;;;;;25.86;29.17;102059.00;7397192;19;20011;-57
2024/01/12 06:52:00;;;;;;;0.32;0.32;;;;;;;25.64;29.38;102062.78;7401496;19;20032;-57
2024/01/12 06:54:27;;;;;;;2.53;0.80;;;;;;;26.11;29.07;102063.50;7397733;19;20467;-56
2024/01/12 06:56:56;;;;;;;0.10;0.10;;;;;;;26.23;28.96;102057.16;7395434;19;20355;-56
2024/01/12 06:59:22;;;;;;;0.52;0.30;;;;;;;26.05;28.90;102060.63;7395578;19;20022;-56
2024/01/12 07:01:48;;;;;;;9.80;0.32;;;;;;;26.23;28.73;102050.66;7396645;19;20013;-56
2024/01/12 07:04:14;;;;;;;0.55;0.52;;;;;;;26.07;29.19;102057.28;7395767;19;20014;-57
2024/01/12 07:06:40;;;;;;;1.80;0.65;;;;;;;25.65;29.39;102050.03;7396702;19;20379;-56
2024/01/12 07:09:11;;;;;;;0.68;0.25;;;;;;;26.13;28.86;102049.47;7396351;19;20463;-56
2024/01/12 07:11:42;;;;;;;1.88;1.17;;;;;;;26.55;28.38;102051.66;7397034;19;20015;-56
2024/01/12 07:14:09;;;;;;;0.20;0.20;;;;;;;26.43;28.63;102058.81;7396290;19;20018;-56
2024/01/12 07:16:37;;;;;;;0.10;0.10;;;;;;;26.15;28.51;102052.56;7395751;19;20048;-56
2024/01/12 07:19:04;;;;;;;1.60;0.47;;;;;;;26.06;28.59;102050.00;7392974;19;20110;-56
2024/01/12 07:21:30;;;;;;;0.10;0.10;;;;;;;25.15;29.55;102058.03;7399424;19;20018;-56
2024/01/12 07:23:56;;;;;;;1.65;0.50;;;;;;;24.57;30.26;102051.44;7394663;19;20344;-56
2024/01/12 07:26:22;;;;;;;0.80;0.43;;;;;;;24.47;30.24;102050.94;7394779;19;20353;-56
2024/01/12 07:28:49;;;;;;;3.13;0.73;;;;;;;24.39;30.19;102054.84;7396470;19;20014;-56
2024/01/12 07:31:15;;;;;;;0.52;0.10;;;;;;;24.52;30.01;102063.63;7394749;19;20407;-56
2024/01/12 07:33:41;;;;;;;0.28;0.28;;;;;;;24.64;30.20;102059.47;7394177;19;20010;-56
2024/01/12 07:36:08;;;;;;;2.08;0.50;;;;;;;24.95;29.83;102056.31;7394954;19;20019;-56
2024/01/12 07:38:34;;;;;;;0.68;0.28;;;;;;;24.84;29.96;102062.03;7392936;19;20015;-56
2024/01/12 07:41:01;;;;;;;0.57;0.30;;;;;;;24.33;30.24;102056.91;7396110;19;20033;-57
2024/01/12 07:43:27;;;;;;;5.78;1.25;;;;;;;25.13;30.28;102055.72;7394213;19;20017;-56
2024/01/12 07:45:53;;;;;;;1.30;0.52;;;;;;;26.54;28.20;102055.84;7395661;19;20014;-56
2024/01/12 07:48:20;;;;;;;2.60;0.68;;;;;;;24.91;29.72;102067.19;7395454;19;20352;-56
2024/01/12 07:50:46;;;;;;;4.68;0.95;;;;;;;24.80;29.54;102065.16;7395643;19;20071;-56
2024/01/12 07:53:12;;;;;;;2.35;0.75;;;;;;;22.12;32.35;102074.53;7394128;19;20105;-56
2024/01/12 07:55:38;;;;;;;1.48;0.50;;;;;;;21.72;32.62;102063.28;7393231;19;20023;-56
2024/01/12 07:58:05;;;;;;;1.20;0.95;;;;;;;20.67;33.87;102068.38;7393311;19;20033;-57
2024/01/12 08:00:31;;;;;;;0.20;0.20;;;;;;;21.17;33.29;102066.25;7397694;19;20030;-56
2024/01/12 08:02:57;;;;;;;1.15;0.68;;;;;;;20.04;34.69;102074.75;7395160;19;20350;-56
2024/01/12 08:05:23;;;;;;;0.45;0.45;;;;;;;19.33;35.73;102072.88;7395674;19;20447;-56
2024/01/12 08:07:50;;;;;;;3.63;0.63;;;;;;;19.45;35.70;102069.03;7393375;19;20010;-56
2024/01/12 08:10:17;;;;;;;3.10;0.32;;;;;;;19.85;35.46;102067.72;7394530;19;20090;-56
2024/01/12 08:12:44;;;;;;;0.82;0.30;;;;;;;19.76;35.34;102067.81;7396407;19;20023;-57
2024/01/12 08:15:11;;;;;;;2.60;0.80;;;;;;;19.05;36.55;102068.69;7392584;19;20025;-56
2024/01/12 08:17:38;;;;;;;4.82;0.68;;;;;;;18.69;37.22;102068.91;7393399;19;20042;-57
2024/01/12 08:20:04;;;;;;;0.20;0.20;;;;;;;19.92;35.50;102064.53;7392876;19;20074;-56
2024/01/12 08:22:32;;;;;;;0.80;0.38;;;;;;;21.54;33.96;102057.94;7394174;19;20014;-56
2024/01/12 08:24:59;;;;;;;0.10;0.10;;;;;;;23.19;32.17;102049.16;7397727;19;20014;-56
2024/01/12 08:27:25;;;;;;;1.08;0.52;;;;;;;23.47;31.36;102049.28;7394345;19;20010;-56
2024/01/12 08:29:52;;;;;;;0.38;0.38;;;;;;;24.21;30.83;102044.78;7391682;19;20018;-56
2024/01/12 08:32:18;;;;;;;1.92;0.50;;;;;;;22.74;32.65;102045.31;7392366;19;20046;-56
2024/01/12 08:34:44;;;;;;;2.88;0.57;;;;;;;24.27;30.74;102039.06;7394813;19;20037;-56
2024/01/12 08:37:10;;;;;;;1.85;0.93;;;;;;;25.27;29.90;102040.38;7399069;19;20010;-56
2024/01/12 08:39:37;;;;;;;3.50;0.40;;;;;;;25.12;30.11;102044.84;7389625;19;20029;-56
2024/01/12 08:42:03;;;;;;;0.40;0.30;;;;;;;25.21;29.81;102033.16;7391625;19;20010;-56
2024/01/12 08:44:29;;;;;;;0.85;0.65;;;;;;;25.41;29.87;102030.69;7395496;19;20033;-56
2024/01/12 08:46:56;;;;;;;1.67;0.47;;;;;;;24.78;29.97;102024.22;7394051;19;20022;-56
2024/01/12 08:49:22;;;;;;;1.13;0.65;;;;;;;24.56;30.25;102019.31;7391597;19;20011;-57
2024/01/12 08:51:48;;;;;;;7.68;1.17;;;;;;;25.07;30.02;102017.13;7396773;19;20014;-56
2024/01/12 08:54:15;;;;;;;4.88;0.82;;;;;;;24.89;29.94;102024.19;7391744;19;20006;-56
2024/01/12 08:56:41;;;;;;;5.72;1.48;;;;;;;24.93;29.93;102023.94;7386966;19;20034;-60
2024/01/12 08:59:08;;;;;;;0.32;0.32;;;;;;;25.14;29.45;102023.06;7387532;19;20031;-60
2024/01/12 09:01:34;;;;;;;1.95;0.50;;;;;;;25.07;29.94;102015.06;7386964;19;20010;-60
2024/01/12 09:04:03;;;;;;;1.20;0.50;;;;;;;25.14;29.86;102020.22;7392352;19;20067;-60
2024/01/12 09:06:29;;;;;;;0.35;0.30;;;;;;;25.48;29.20;102027.31;7391759;19;20010;-60
2024/01/12 09:08:55;;;;;;;2.10;0.30;;;;;;;25.54;29.19;102022.34;7392618;19;20007;-60
2024/01/12 09:11:22;;;;;;;2.45;0.38;;;;;;;25.53;29.32;102020.78;7392297;19;20007;-61
2024/01/12 09:13:48;;;;;;;0.98;0.50;;;;;;;25.39;29.17;102027.59;7390825;19;20391;-60
2024/01/12 09:16:15;;;;;;;1.38;0.60;;;;;;;25.36;29.30;102034.34;7391564;19;20006;-61
2024/01/12 09:18:43;;;;;;;0.30;0.20;;;;;;;25.00;29.78;102035.56;7390177;19;20015;-60
2024/01/12 09:21:15;;;;;;;1.95;0.55;;;;;;;25.16;29.23;102031.88;7394012;19;20066;-60
2024/01/12 09:23:42;;;;;;;0.40;0.40;;;;;;;25.29;29.53;102043.47;7391935;19;20509;-61
2024/01/12 09:26:11;;;;;;;2.85;0.85;;;;;;;24.81;29.76;102028.88;7391812;19;20006;-60
2024/01/12 09:28:38;;;;;;;1.58;0.57;;;;;;;24.79;30.00;102037.19;7391631;19;20011;-60
2024/01/12 09:31:05;;;;;;;0.80;0.20;;;;;;;24.36;29.90;102047.34;7391645;19;20017;-61
2024/01/12 09:33:31;;;;;;;13.43;1.00;;;;;;;24.48;29.80;102031.78;7392609;19;20080;-61
2024/01/12 09:35:58;;;;;;;1.20;0.70;;;;;;;24.68;30.02;102034.34;7391806;19;20014;-60
2024/01/12 09:38:24;;;;;;;0.28;0.15;;;;;;;24.96;29.55;102040.75;7390418;19;20010;-60
2024/01/12 09:40:51;;;;;;;0.10;0.08;;;;;;;22.05;32.19;102046.59;7390591;19;20433;-61
2024/01/12 09:43:20;;;;;;;3.03;0.10;;;;;;;20.87;32.99;102054.25;7389507;19;20010;-60
2024/01/12 09:45:50;;;;;;;0.73;0.52;;;;;;;23.61;31.14;102037.69;7390573;19;20010;-60
2024/01/12 09:48:16;;;;;;;4.18;1.88;;;;;;;23.44;30.73;102027.56;7389872;19;20478;-61
2024/01/12 09:50:43;;;;;;;0.98;0.50;;;;;;;23.46;30.88;102030.66;7392539;19;20029;-60
2024/01/12 09:53:10;;;;;;;2.53;0.50;;;;;;;23.67;30.69;102034.88;7390474;19;20007;-60
2024/01/12 09:55:36;;;;;;;4.13;1.27;;;;;;;21.81;32.53;102040.41;7394718;19;20011;-61
2024/01/12 09:58:04;;;;;;;0.80;0.80;;;;;;;20.52;34.54;102036.47;7389740;19;20021;-61
2024/01/12 10:00:34;;;;;;;0.63;0.63;;;;;;;19.63;35.34;102039.84;7390861;19;20006;-61
2024/01/12 10:03:01;;;;;;;0.40;0.40;;;;;;;19.28;36.19;102038.84;7389517;19;20010;-61
2024/01/12 10:05:27;;;;;;;3.60;0.47;;;;;;;18.39;37.22;102036.88;7395922;19;20022;-61
2024/01/12 10:07:53;;;;;;;14.57;1.13;;;;;;;19.56;35.80;102041.00;7390650;19;20034;-60
2024/01/12 10:10:19;;;;;;;9.27;1.02;;;;;;;19.00;36.58;102038.28;7391104;19;20007;-61
2024/01/12 10:12:49;;;;;;;1.50;0.52;;;;;;;27.76;28.26;102022.88;7392486;19;20110;-61
2024/01/12 10:15:15;;;;;;;1.17;0.57;;;;;;;30.62;25.87;102016.50;7401066;19;20470;-61
2024/01/12 10:17:41;;;;;;;3.78;1.48;;;;;;;31.47;24.88;102008.50;7397137;19;20011;-61
2024/01/12 10:20:09;;;;;;;1.58;0.85;;;;;;;31.90;24.48;102010.53;7399269;19;20026;-61
2024/01/12 10:22:35;;;;;;;5.75;1.00;;;;;;;31.61;24.17;102014.88;7398421;19;20039;-60
2024/01/12 10:27:56;;;;;;;1.63;0.93;;;;;;;33.75;22.30;101998.16;7392355;19;20027;-57
2024/01/12 10:30:23;;;;;;;0.60;0.60;;;;;;;32.64;23.43;102003.22;7393528;19;20115;-56
2024/01/12 10:32:51;;;;;;;5.07;1.70;;;;;;;30.60;24.36;102007.66;7394150;19;20335;-57
2024/01/12 10:35:20;;;;;;;1.83;1.38;;;;;;;26.78;27.45;102007.25;7393316;19;20017;-56
2024/01/12 10:37:47;;;;;;;4.65;1.65;;;;;;;27.18;26.89;102013.28;7394098;19;20014;-56
2024/01/12 10:40:17;;;;;;;0.63;0.40;;;;;;;25.45;27.94;102011.25;7396666;19;20015;-56
2024/01/12 10:42:48;;;;;;;3.08;0.47;;;;;;;26.75;27.57;101999.75;7396927;19;20021;-56
2024/01/12 10:45:21;;;;;;;1.88;0.55;;;;;;;25.82;28.04;101999.31;7397507;19;20014;-57
2024/01/12 10:47:57;;;;;;;1.80;0.90;;;;;;;24.48;29.61;101994.75;7396537;19;20010;-56
2024/01/12 10:50:24;;;;;;;5.03;1.77;;;;;;;24.67;29.50;102001.41;7398355;19;20015;-56
2024/01/12 10:53:10;;;;;;;0.68;0.68;;;;;;;25.66;28.55;101994.53;7396066;19;20035;-56
2024/01/12 10:55:41;;;;;;;0.10;0.10;;;;;;;25.77;28.31;101999.38;7396217;19;20007;-57
2024/01/12 10:58:08;;;;;;;4.05;0.68;;;;;;;25.10;29.08;101999.72;7396135;19;20517;-56
2024/01/12 11:00:34;;;;;;;0.63;0.57;;;;;;;25.54;28.71;101999.50;7393821;19;20066;-56
2024/01/12 11:03:03;;;;;;;1.17;0.45;;;;;;;25.79;28.31;102003.25;7401052;19;20041;-56
2024/01/12 11:05:31;;;;;;;1.83;0.98;;;;;;;28.11;27.29;101993.91;7395829;19;20006;-56
2024/01/12 11:08:00;;;;;;;0.10;0.10;;;;;;;28.75;26.17;101993.78;7396765;19;20469;-57
2024/01/12 11:10:27;;;;;;;2.53;1.13;;;;;;;30.47;24.38;101997.00;7395477;19;20011;-56
2024/01/12 11:12:55;;;;;;;0.95;0.55;;;;;;;28.03;26.29;101987.28;7396031;19;20413;-56
2024/01/12 11:15:22;;;;;;;1.08;0.55;;;;;;;28.56;26.00;101987.34;7394368;19;20474;-56
2024/01/12 11:17:48;;;;;;;0.43;0.40;;;;;;;32.56;23.08;101981.50;7396038;19;20342;-57
2024/01/12 11:20:20;;;;;;;0.77;0.50;;;;;;;30.77;24.15;101982.06;7396918;19;20034;-57
2024/01/12 11:22:48;;;;;;;0.15;0.15;;;;;;;31.57;23.48;101977.03;7395531;19;20006;-56
2024/01/12 11:25:16;;;;;;;0.52;0.52;;;;;;;32.50;23.10;101970.19;7392832;19;20018;-57
2024/01/12 11:27:50;;;;;;;0.10;0.10;;;;;;;33.30;22.31;101964.50;7395059;19;20103;-56